sensor_id;sensor_type;location;lat;lon;timestamp;P1;durP1;ratioP1;P2;durP2;ratioP2
76405;SDS011;65234;50.044;19.258;2023-02-28T00:01:19;34.03;;;31.65;;
76405;SDS011;65234;50.044;19.258;2023-02-28T00:03:45;34.93;;;32.50;;
76405;SDS011;65234;50.044;19.258;2023-02-28T00:06:10;34.40;;;32.17;;
76405;SDS011;65234;50.044;19.258;2023-02-28T00:08:37;37.08;;;32.65;;
76405;SDS011;65234;50.044;19.258;2023-02-28T00:11:04;33.15;;;31.17;;
76405;SDS011;65234;50.044;19.258;2023-02-28T00:13:33;35.17;;;32.00;;
76405;SDS011;65234;50.044;19.258;2023-02-28T00:16:01;34.40;;;31.87;;
76405;SDS011;65234;50.044;19.258;2023-02-28T00:18:28;33.23;;;31.40;;
76405;SDS011;65234;50.044;19.258;2023-02-28T00:20:54;31.57;;;29.60;;
76405;SDS011;65234;50.044;19.258;2023-02-28T00:23:19;30.57;;;28.63;;
76405;SDS011;65234;50.044;19.258;2023-02-28T00:25:46;28.07;;;26.77;;
76405;SDS011;65234;50.044;19.258;2023-02-28T00:28:13;29.70;;;27.70;;
76405;SDS011;65234;50.044;19.258;2023-02-28T00:30:39;28.57;;;27.17;;
76405;SDS011;65234;50.044;19.258;2023-02-28T00:33:04;31.73;;;29.88;;
76405;SDS011;65234;50.044;19.258;2023-02-28T00:35:30;28.90;;;27.50;;
76405;SDS011;65234;50.044;19.258;2023-02-28T00:37:56;31.57;;;29.30;;
76405;SDS011;65234;50.044;19.258;2023-02-28T00:40:22;30.83;;;29.03;;
76405;SDS011;65234;50.044;19.258;2023-02-28T00:42:49;29.60;;;27.80;;
76405;SDS011;65234;50.044;19.258;2023-02-28T00:45:15;32.92;;;30.90;;
76405;SDS011;65234;50.044;19.258;2023-02-28T00:47:40;31.40;;;29.70;;
76405;SDS011;65234;50.044;19.258;2023-02-28T00:50:07;29.90;;;28.30;;
76405;SDS011;65234;50.044;19.258;2023-02-28T00:52:34;29.80;;;27.93;;
76405;SDS011;65234;50.044;19.258;2023-02-28T00:54:59;30.60;;;29.03;;
76405;SDS011;65234;50.044;19.258;2023-02-28T00:57:25;27.87;;;26.47;;
76405;SDS011;65234;50.044;19.258;2023-02-28T00:59:52;28.40;;;26.90;;
76405;SDS011;65234;50.044;19.258;2023-02-28T01:02:18;30.33;;;28.77;;
76405;SDS011;65234;50.044;19.258;2023-02-28T01:04:44;30.77;;;28.23;;
76405;SDS011;65234;50.044;19.258;2023-02-28T01:07:09;31.47;;;29.23;;
76405;SDS011;65234;50.044;19.258;2023-02-28T01:09:35;28.30;;;26.90;;
76405;SDS011;65234;50.044;19.258;2023-02-28T01:12:01;29.48;;;27.95;;
76405;SDS011;65234;50.044;19.258;2023-02-28T01:14:27;30.33;;;28.53;;
76405;SDS011;65234;50.044;19.258;2023-02-28T01:16:53;30.80;;;28.27;;
76405;SDS011;65234;50.044;19.258;2023-02-28T01:19:19;29.37;;;27.70;;
76405;SDS011;65234;50.044;19.258;2023-02-28T01:21:45;30.67;;;28.93;;
76405;SDS011;65234;50.044;19.258;2023-02-28T01:24:11;30.33;;;28.50;;
76405;SDS011;65234;50.044;19.258;2023-02-28T01:26:36;29.60;;;27.80;;
76405;SDS011;65234;50.044;19.258;2023-02-28T01:29:02;28.40;;;26.93;;
76405;SDS011;65234;50.044;19.258;2023-02-28T01:31:28;31.20;;;28.77;;
76405;SDS011;65234;50.044;19.258;2023-02-28T01:33:55;30.33;;;28.43;;
76405;SDS011;65234;50.044;19.258;2023-02-28T01:36:21;30.37;;;28.43;;
76405;SDS011;65234;50.044;19.258;2023-02-28T01:38:49;28.83;;;27.43;;
76405;SDS011;65234;50.044;19.258;2023-02-28T01:41:16;28.83;;;27.20;;
76405;SDS011;65234;50.044;19.258;2023-02-28T01:43:53;30.40;;;28.20;;
76405;SDS011;65234;50.044;19.258;2023-02-28T01:46:26;32.50;;;30.23;;
76405;SDS011;65234;50.044;19.258;2023-02-28T01:48:53;30.33;;;28.50;;
76405;SDS011;65234;50.044;19.258;2023-02-28T01:51:26;28.23;;;26.63;;
76405;SDS011;65234;50.044;19.258;2023-02-28T01:53:58;31.07;;;29.20;;
76405;SDS011;65234;50.044;19.258;2023-02-28T01:56:27;28.67;;;26.90;;
76405;SDS011;65234;50.044;19.258;2023-02-28T01:58:56;31.20;;;29.30;;
76405;SDS011;65234;50.044;19.258;2023-02-28T02:01:22;30.20;;;28.30;;
76405;SDS011;65234;50.044;19.258;2023-02-28T02:03:53;30.20;;;28.13;;
76405;SDS011;65234;50.044;19.258;2023-02-28T02:06:22;29.07;;;27.37;;
76405;SDS011;65234;50.044;19.258;2023-02-28T02:08:48;28.77;;;26.73;;
76405;SDS011;65234;50.044;19.258;2023-02-28T02:11:14;28.90;;;27.40;;
76405;SDS011;65234;50.044;19.258;2023-02-28T02:13:49;27.80;;;26.27;;
76405;SDS011;65234;50.044;19.258;2023-02-28T02:16:30;28.73;;;27.03;;
76405;SDS011;65234;50.044;19.258;2023-02-28T02:19:08;29.20;;;27.60;;
76405;SDS011;65234;50.044;19.258;2023-02-28T02:22:00;27.70;;;26.30;;
76405;SDS011;65234;50.044;19.258;2023-02-28T02:25:13;25.63;;;24.33;;
76405;SDS011;65234;50.044;19.258;2023-02-28T02:27:52;28.37;;;26.93;;
76405;SDS011;65234;50.044;19.258;2023-02-28T02:30:57;26.80;;;25.43;;
76405;SDS011;65234;50.044;19.258;2023-02-28T02:33:45;27.23;;;25.70;;
76405;SDS011;65234;50.044;19.258;2023-02-28T02:36:37;28.53;;;25.87;;
76405;SDS011;65234;50.044;19.258;2023-02-28T02:39:06;27.37;;;25.80;;
76405;SDS011;65234;50.044;19.258;2023-02-28T02:41:39;28.60;;;26.90;;
76405;SDS011;65234;50.044;19.258;2023-02-28T02:44:12;26.67;;;25.17;;
76405;SDS011;65234;50.044;19.258;2023-02-28T02:46:44;26.65;;;25.38;;
76405;SDS011;65234;50.044;19.258;2023-02-28T02:49:13;28.97;;;27.27;;
76405;SDS011;65234;50.044;19.258;2023-02-28T02:51:43;28.93;;;27.10;;
76405;SDS011;65234;50.044;19.258;2023-02-28T02:54:13;28.60;;;27.07;;
76405;SDS011;65234;50.044;19.258;2023-02-28T02:56:43;30.57;;;28.50;;
76405;SDS011;65234;50.044;19.258;2023-02-28T02:59:12;30.67;;;29.07;;
76405;SDS011;65234;50.044;19.258;2023-02-28T03:01:41;31.33;;;29.47;;
76405;SDS011;65234;50.044;19.258;2023-02-28T03:04:08;31.77;;;29.87;;
76405;SDS011;65234;50.044;19.258;2023-02-28T03:06:36;29.93;;;28.23;;
76405;SDS011;65234;50.044;19.258;2023-02-28T03:09:03;32.13;;;30.17;;
76405;SDS011;65234;50.044;19.258;2023-02-28T03:11:29;32.17;;;29.70;;
76405;SDS011;65234;50.044;19.258;2023-02-28T03:13:59;33.33;;;31.33;;
76405;SDS011;65234;50.044;19.258;2023-02-28T03:16:40;34.97;;;31.93;;
76405;SDS011;65234;50.044;19.258;2023-02-28T03:19:25;30.60;;;28.80;;
76405;SDS011;65234;50.044;19.258;2023-02-28T03:22:03;29.37;;;26.93;;
76405;SDS011;65234;50.044;19.258;2023-02-28T03:24:41;30.20;;;28.20;;
76405;SDS011;65234;50.044;19.258;2023-02-28T03:27:11;29.03;;;27.27;;
76405;SDS011;65234;50.044;19.258;2023-02-28T03:29:42;28.70;;;27.23;;
76405;SDS011;65234;50.044;19.258;2023-02-28T03:32:13;30.13;;;28.43;;
76405;SDS011;65234;50.044;19.258;2023-02-28T03:34:45;29.97;;;28.37;;
76405;SDS011;65234;50.044;19.258;2023-02-28T03:37:15;28.97;;;26.90;;
76405;SDS011;65234;50.044;19.258;2023-02-28T03:39:45;32.53;;;30.57;;
76405;SDS011;65234;50.044;19.258;2023-02-28T03:42:14;29.80;;;28.00;;
76405;SDS011;65234;50.044;19.258;2023-02-28T03:44:44;31.07;;;29.10;;
76405;SDS011;65234;50.044;19.258;2023-02-28T03:47:14;29.73;;;27.87;;
76405;SDS011;65234;50.044;19.258;2023-02-28T03:49:43;32.40;;;30.10;;
76405;SDS011;65234;50.044;19.258;2023-02-28T03:52:15;38.30;;;29.90;;
76405;SDS011;65234;50.044;19.258;2023-02-28T03:54:45;28.93;;;27.17;;
76405;SDS011;65234;50.044;19.258;2023-02-28T03:57:18;30.37;;;28.67;;
76405;SDS011;65234;50.044;19.258;2023-02-28T03:59:52;31.00;;;29.13;;
76405;SDS011;65234;50.044;19.258;2023-02-28T04:02:24;31.25;;;29.15;;
76405;SDS011;65234;50.044;19.258;2023-02-28T04:04:50;31.37;;;29.57;;
76405;SDS011;65234;50.044;19.258;2023-02-28T04:07:16;32.97;;;30.43;;
76405;SDS011;65234;50.044;19.258;2023-02-28T04:09:42;27.50;;;26.03;;
76405;SDS011;65234;50.044;19.258;2023-02-28T04:12:10;31.77;;;29.87;;
76405;SDS011;65234;50.044;19.258;2023-02-28T04:14:35;30.23;;;28.37;;
76405;SDS011;65234;50.044;19.258;2023-02-28T04:17:01;30.77;;;28.87;;
76405;SDS011;65234;50.044;19.258;2023-02-28T04:19:27;29.00;;;26.97;;
76405;SDS011;65234;50.044;19.258;2023-02-28T04:21:52;28.73;;;27.17;;
76405;SDS011;65234;50.044;19.258;2023-02-28T04:24:19;29.73;;;27.93;;
76405;SDS011;65234;50.044;19.258;2023-02-28T04:26:49;29.70;;;27.43;;
76405;SDS011;65234;50.044;19.258;2023-02-28T04:29:18;27.70;;;26.20;;
76405;SDS011;65234;50.044;19.258;2023-02-28T04:31:45;28.70;;;27.00;;
76405;SDS011;65234;50.044;19.258;2023-02-28T04:34:11;28.67;;;27.07;;
76405;SDS011;65234;50.044;19.258;2023-02-28T04:36:37;29.07;;;27.37;;
76405;SDS011;65234;50.044;19.258;2023-02-28T04:39:03;30.13;;;28.03;;
76405;SDS011;65234;50.044;19.258;2023-02-28T04:41:29;29.77;;;28.17;;
76405;SDS011;65234;50.044;19.258;2023-02-28T04:43:56;28.57;;;27.03;;
76405;SDS011;65234;50.044;19.258;2023-02-28T04:46:22;28.07;;;26.37;;
76405;SDS011;65234;50.044;19.258;2023-02-28T04:48:48;29.00;;;26.70;;
76405;SDS011;65234;50.044;19.258;2023-02-28T04:51:17;27.60;;;26.03;;
76405;SDS011;65234;50.044;19.258;2023-02-28T04:53:43;27.07;;;25.40;;
76405;SDS011;65234;50.044;19.258;2023-02-28T04:56:10;30.10;;;28.47;;
76405;SDS011;65234;50.044;19.258;2023-02-28T04:58:37;28.33;;;26.23;;
76405;SDS011;65234;50.044;19.258;2023-02-28T05:01:05;30.10;;;27.67;;
76405;SDS011;65234;50.044;19.258;2023-02-28T05:03:32;27.37;;;25.77;;
76405;SDS011;65234;50.044;19.258;2023-02-28T05:05:58;31.43;;;29.23;;
76405;SDS011;65234;50.044;19.258;2023-02-28T05:08:23;31.47;;;29.00;;
76405;SDS011;65234;50.044;19.258;2023-02-28T05:10:49;29.77;;;27.43;;
76405;SDS011;65234;50.044;19.258;2023-02-28T05:13:14;28.17;;;25.97;;
76405;SDS011;65234;50.044;19.258;2023-02-28T05:15:40;25.90;;;24.50;;
76405;SDS011;65234;50.044;19.258;2023-02-28T05:18:08;26.00;;;24.50;;
76405;SDS011;65234;50.044;19.258;2023-02-28T05:20:34;29.77;;;27.67;;
76405;SDS011;65234;50.044;19.258;2023-02-28T05:23:00;29.60;;;27.77;;
76405;SDS011;65234;50.044;19.258;2023-02-28T05:25:26;30.67;;;28.53;;
76405;SDS011;65234;50.044;19.258;2023-02-28T05:27:52;30.07;;;28.07;;
76405;SDS011;65234;50.044;19.258;2023-02-28T05:30:18;29.37;;;26.87;;
76405;SDS011;65234;50.044;19.258;2023-02-28T05:32:43;28.00;;;26.50;;
76405;SDS011;65234;50.044;19.258;2023-02-28T05:35:11;30.30;;;27.83;;
76405;SDS011;65234;50.044;19.258;2023-02-28T05:37:37;31.97;;;28.90;;
76405;SDS011;65234;50.044;19.258;2023-02-28T05:40:03;30.70;;;28.37;;
76405;SDS011;65234;50.044;19.258;2023-02-28T05:42:30;29.90;;;27.67;;
76405;SDS011;65234;50.044;19.258;2023-02-28T05:44:56;27.27;;;25.57;;
76405;SDS011;65234;50.044;19.258;2023-02-28T05:47:21;30.77;;;27.57;;
76405;SDS011;65234;50.044;19.258;2023-02-28T05:49:47;34.43;;;31.83;;
76405;SDS011;65234;50.044;19.258;2023-02-28T05:52:14;31.10;;;28.70;;
76405;SDS011;65234;50.044;19.258;2023-02-28T05:54:40;29.17;;;27.23;;
76405;SDS011;65234;50.044;19.258;2023-02-28T05:57:06;31.30;;;28.23;;
76405;SDS011;65234;50.044;19.258;2023-02-28T05:59:32;30.87;;;28.87;;
76405;SDS011;65234;50.044;19.258;2023-02-28T06:01:57;28.63;;;26.93;;
76405;SDS011;65234;50.044;19.258;2023-02-28T06:04:23;28.77;;;26.57;;
76405;SDS011;65234;50.044;19.258;2023-02-28T06:06:50;28.17;;;26.67;;
76405;SDS011;65234;50.044;19.258;2023-02-28T06:09:17;29.73;;;27.90;;
76405;SDS011;65234;50.044;19.258;2023-02-28T06:11:43;31.07;;;28.80;;
76405;SDS011;65234;50.044;19.258;2023-02-28T06:14:10;28.87;;;27.07;;
76405;SDS011;65234;50.044;19.258;2023-02-28T06:16:39;32.90;;;30.43;;
76405;SDS011;65234;50.044;19.258;2023-02-28T06:19:05;36.27;;;32.73;;
76405;SDS011;65234;50.044;19.258;2023-02-28T06:21:31;32.33;;;29.13;;
76405;SDS011;65234;50.044;19.258;2023-02-28T06:23:57;32.83;;;30.60;;
76405;SDS011;65234;50.044;19.258;2023-02-28T06:26:25;32.73;;;29.60;;
76405;SDS011;65234;50.044;19.258;2023-02-28T06:28:51;30.93;;;28.73;;
76405;SDS011;65234;50.044;19.258;2023-02-28T06:31:17;31.80;;;29.37;;
76405;SDS011;65234;50.044;19.258;2023-02-28T06:33:45;29.93;;;27.57;;
76405;SDS011;65234;50.044;19.258;2023-02-28T06:36:11;33.77;;;30.93;;
76405;SDS011;65234;50.044;19.258;2023-02-28T06:38:39;32.67;;;30.43;;
76405;SDS011;65234;50.044;19.258;2023-02-28T06:41:05;29.00;;;26.80;;
76405;SDS011;65234;50.044;19.258;2023-02-28T06:43:33;29.93;;;27.57;;
76405;SDS011;65234;50.044;19.258;2023-02-28T06:46:02;30.10;;;27.77;;
76405;SDS011;65234;50.044;19.258;2023-02-28T06:48:29;32.70;;;30.33;;
76405;SDS011;65234;50.044;19.258;2023-02-28T06:51:00;32.70;;;30.37;;
76405;SDS011;65234;50.044;19.258;2023-02-28T06:53:27;30.17;;;28.07;;
76405;SDS011;65234;50.044;19.258;2023-02-28T06:55:53;32.73;;;30.77;;
76405;SDS011;65234;50.044;19.258;2023-02-28T06:58:19;27.63;;;26.27;;
76405;SDS011;65234;50.044;19.258;2023-02-28T07:00:49;31.30;;;28.63;;
76405;SDS011;65234;50.044;19.258;2023-02-28T07:03:16;30.40;;;28.13;;
76405;SDS011;65234;50.044;19.258;2023-02-28T07:05:42;28.93;;;27.50;;
76405;SDS011;65234;50.044;19.258;2023-02-28T07:08:08;31.37;;;28.83;;
76405;SDS011;65234;50.044;19.258;2023-02-28T07:10:33;29.50;;;27.70;;
76405;SDS011;65234;50.044;19.258;2023-02-28T07:12:59;32.77;;;29.97;;
76405;SDS011;65234;50.044;19.258;2023-02-28T07:15:25;30.77;;;28.17;;
76405;SDS011;65234;50.044;19.258;2023-02-28T07:17:52;28.67;;;26.20;;
76405;SDS011;65234;50.044;19.258;2023-02-28T07:20:17;30.63;;;28.10;;
76405;SDS011;65234;50.044;19.258;2023-02-28T07:22:45;28.30;;;26.63;;
76405;SDS011;65234;50.044;19.258;2023-02-28T07:25:10;31.93;;;30.03;;
76405;SDS011;65234;50.044;19.258;2023-02-28T07:27:36;29.67;;;27.20;;
76405;SDS011;65234;50.044;19.258;2023-02-28T07:30:02;31.37;;;28.70;;
76405;SDS011;65234;50.044;19.258;2023-02-28T07:32:28;28.37;;;26.77;;
76405;SDS011;65234;50.044;19.258;2023-02-28T07:34:55;31.77;;;29.43;;
76405;SDS011;65234;50.044;19.258;2023-02-28T07:37:21;30.70;;;28.60;;
76405;SDS011;65234;50.044;19.258;2023-02-28T07:39:47;30.93;;;28.23;;
76405;SDS011;65234;50.044;19.258;2023-02-28T07:42:13;32.13;;;29.80;;
76405;SDS011;65234;50.044;19.258;2023-02-28T07:44:38;31.10;;;29.07;;
76405;SDS011;65234;50.044;19.258;2023-02-28T07:47:05;29.17;;;27.43;;
76405;SDS011;65234;50.044;19.258;2023-02-28T07:49:31;28.97;;;26.70;;
76405;SDS011;65234;50.044;19.258;2023-02-28T07:51:58;32.20;;;30.27;;
76405;SDS011;65234;50.044;19.258;2023-02-28T07:54:24;32.37;;;30.03;;
76405;SDS011;65234;50.044;19.258;2023-02-28T07:56:50;29.90;;;28.10;;
76405;SDS011;65234;50.044;19.258;2023-02-28T07:59:15;27.90;;;26.27;;
76405;SDS011;65234;50.044;19.258;2023-02-28T08:01:41;31.47;;;29.27;;
76405;SDS011;65234;50.044;19.258;2023-02-28T08:04:07;30.47;;;28.83;;
76405;SDS011;65234;50.044;19.258;2023-02-28T08:06:33;30.87;;;29.00;;
76405;SDS011;65234;50.044;19.258;2023-02-28T08:09:00;30.87;;;28.67;;
76405;SDS011;65234;50.044;19.258;2023-02-28T08:11:26;28.53;;;27.03;;
76405;SDS011;65234;50.044;19.258;2023-02-28T08:13:51;32.47;;;29.93;;
76405;SDS011;65234;50.044;19.258;2023-02-28T08:16:17;30.20;;;28.43;;
76405;SDS011;65234;50.044;19.258;2023-02-28T08:18:43;33.80;;;31.50;;
76405;SDS011;65234;50.044;19.258;2023-02-28T08:21:09;32.23;;;30.00;;
76405;SDS011;65234;50.044;19.258;2023-02-28T08:23:35;31.80;;;30.03;;
76405;SDS011;65234;50.044;19.258;2023-02-28T08:26:03;32.17;;;29.77;;
76405;SDS011;65234;50.044;19.258;2023-02-28T08:28:29;31.60;;;29.75;;
76405;SDS011;65234;50.044;19.258;2023-02-28T08:30:55;34.00;;;31.60;;
76405;SDS011;65234;50.044;19.258;2023-02-28T08:33:20;34.15;;;32.33;;
76405;SDS011;65234;50.044;19.258;2023-02-28T08:35:47;35.65;;;33.03;;
76405;SDS011;65234;50.044;19.258;2023-02-28T08:38:12;34.75;;;32.65;;
76405;SDS011;65234;50.044;19.258;2023-02-28T08:40:38;33.72;;;31.85;;
76405;SDS011;65234;50.044;19.258;2023-02-28T08:43:05;32.33;;;30.52;;
76405;SDS011;65234;50.044;19.258;2023-02-28T08:45:31;35.05;;;33.15;;
76405;SDS011;65234;50.044;19.258;2023-02-28T08:47:56;35.15;;;32.95;;
76405;SDS011;65234;50.044;19.258;2023-02-28T08:50:22;40.50;;;36.95;;
76405;SDS011;65234;50.044;19.258;2023-02-28T08:52:48;36.60;;;34.25;;
76405;SDS011;65234;50.044;19.258;2023-02-28T08:55:14;36.55;;;34.47;;
76405;SDS011;65234;50.044;19.258;2023-02-28T08:57:40;32.13;;;30.52;;
76405;SDS011;65234;50.044;19.258;2023-02-28T09:00:08;32.90;;;31.08;;
76405;SDS011;65234;50.044;19.258;2023-02-28T09:02:34;35.60;;;33.65;;
76405;SDS011;65234;50.044;19.258;2023-02-28T09:05:00;33.08;;;31.35;;
76405;SDS011;65234;50.044;19.258;2023-02-28T09:07:26;33.95;;;31.77;;
76405;SDS011;65234;50.044;19.258;2023-02-28T09:09:51;38.00;;;35.65;;
76405;SDS011;65234;50.044;19.258;2023-02-28T09:12:17;35.10;;;32.22;;
76405;SDS011;65234;50.044;19.258;2023-02-28T09:14:43;38.15;;;35.63;;
76405;SDS011;65234;50.044;19.258;2023-02-28T09:17:10;38.10;;;35.28;;
76405;SDS011;65234;50.044;19.258;2023-02-28T09:19:36;38.33;;;36.17;;
76405;SDS011;65234;50.044;19.258;2023-02-28T09:22:01;36.50;;;34.22;;
76405;SDS011;65234;50.044;19.258;2023-02-28T09:24:27;36.53;;;34.28;;
76405;SDS011;65234;50.044;19.258;2023-02-28T09:26:53;38.60;;;36.38;;
76405;SDS011;65234;50.044;19.258;2023-02-28T09:29:19;36.75;;;34.63;;
76405;SDS011;65234;50.044;19.258;2023-02-28T09:31:44;35.78;;;33.20;;
76405;SDS011;65234;50.044;19.258;2023-02-28T09:34:11;33.08;;;31.27;;
76405;SDS011;65234;50.044;19.258;2023-02-28T09:36:37;33.45;;;31.85;;
76405;SDS011;65234;50.044;19.258;2023-02-28T09:39:03;35.92;;;34.13;;
76405;SDS011;65234;50.044;19.258;2023-02-28T09:41:30;39.03;;;36.83;;
76405;SDS011;65234;50.044;19.258;2023-02-28T09:46:31;35.40;;;33.53;;
76405;SDS011;65234;50.044;19.258;2023-02-28T09:49:00;35.13;;;33.17;;
76405;SDS011;65234;50.044;19.258;2023-02-28T09:54:16;39.47;;;36.28;;
76405;SDS011;65234;50.044;19.258;2023-02-28T09:56:44;35.80;;;33.95;;
76405;SDS011;65234;50.044;19.258;2023-02-28T09:59:16;36.42;;;34.35;;
76405;SDS011;65234;50.044;19.258;2023-02-28T10:01:54;34.53;;;32.60;;
76405;SDS011;65234;50.044;19.258;2023-02-28T10:04:34;38.60;;;35.58;;
76405;SDS011;65234;50.044;19.258;2023-02-28T10:07:10;36.33;;;34.33;;
76405;SDS011;65234;50.044;19.258;2023-02-28T10:09:44;38.75;;;35.10;;
76405;SDS011;65234;50.044;19.258;2023-02-28T10:12:12;41.70;;;38.58;;
76405;SDS011;65234;50.044;19.258;2023-02-28T10:14:40;37.42;;;35.42;;
76405;SDS011;65234;50.044;19.258;2023-02-28T10:17:11;38.53;;;36.00;;
76405;SDS011;65234;50.044;19.258;2023-02-28T10:19:40;37.22;;;35.33;;
76405;SDS011;65234;50.044;19.258;2023-02-28T10:22:14;39.10;;;36.80;;
76405;SDS011;65234;50.044;19.258;2023-02-28T10:24:44;37.78;;;35.42;;
76405;SDS011;65234;50.044;19.258;2023-02-28T10:27:13;41.58;;;38.92;;
76405;SDS011;65234;50.044;19.258;2023-02-28T10:29:41;39.65;;;37.38;;
76405;SDS011;65234;50.044;19.258;2023-02-28T10:32:09;36.63;;;34.30;;
76405;SDS011;65234;50.044;19.258;2023-02-28T10:34:38;36.65;;;34.85;;
76405;SDS011;65234;50.044;19.258;2023-02-28T10:37:04;37.00;;;34.83;;
76405;SDS011;65234;50.044;19.258;2023-02-28T10:39:36;38.50;;;36.30;;
76405;SDS011;65234;50.044;19.258;2023-02-28T10:42:04;39.28;;;36.35;;
76405;SDS011;65234;50.044;19.258;2023-02-28T10:44:30;38.58;;;36.20;;
76405;SDS011;65234;50.044;19.258;2023-02-28T10:46:56;36.85;;;35.05;;
76405;SDS011;65234;50.044;19.258;2023-02-28T10:49:23;36.35;;;34.35;;
76405;SDS011;65234;50.044;19.258;2023-02-28T10:51:51;38.38;;;35.97;;
76405;SDS011;65234;50.044;19.258;2023-02-28T10:54:19;40.03;;;37.03;;
76405;SDS011;65234;50.044;19.258;2023-02-28T10:59:41;36.35;;;34.28;;
76405;SDS011;65234;50.044;19.258;2023-02-28T11:04:58;35.83;;;33.72;;
76405;SDS011;65234;50.044;19.258;2023-02-28T11:07:25;37.42;;;35.30;;
76405;SDS011;65234;50.044;19.258;2023-02-28T11:09:51;37.30;;;35.33;;
76405;SDS011;65234;50.044;19.258;2023-02-28T11:12:23;38.03;;;36.13;;
76405;SDS011;65234;50.044;19.258;2023-02-28T11:14:52;39.83;;;37.17;;
76405;SDS011;65234;50.044;19.258;2023-02-28T11:17:21;35.30;;;33.10;;
76405;SDS011;65234;50.044;19.258;2023-02-28T11:19:50;38.50;;;36.40;;
76405;SDS011;65234;50.044;19.258;2023-02-28T11:22:18;37.13;;;34.97;;
76405;SDS011;65234;50.044;19.258;2023-02-28T11:24:47;37.88;;;35.85;;
76405;SDS011;65234;50.044;19.258;2023-02-28T11:27:25;36.88;;;35.08;;
76405;SDS011;65234;50.044;19.258;2023-02-28T11:30:11;35.33;;;33.20;;
76405;SDS011;65234;50.044;19.258;2023-02-28T11:32:49;41.13;;;38.15;;
76405;SDS011;65234;50.044;19.258;2023-02-28T11:35:17;37.50;;;35.38;;
76405;SDS011;65234;50.044;19.258;2023-02-28T11:37:46;38.05;;;36.05;;
76405;SDS011;65234;50.044;19.258;2023-02-28T11:40:12;37.65;;;35.55;;
76405;SDS011;65234;50.044;19.258;2023-02-28T11:42:43;40.95;;;38.33;;
76405;SDS011;65234;50.044;19.258;2023-02-28T11:45:21;38.50;;;36.15;;
76405;SDS011;65234;50.044;19.258;2023-02-28T11:47:55;43.50;;;36.33;;
76405;SDS011;65234;50.044;19.258;2023-02-28T11:50:31;37.90;;;35.40;;
76405;SDS011;65234;50.044;19.258;2023-02-28T11:53:10;37.25;;;35.25;;
76405;SDS011;65234;50.044;19.258;2023-02-28T11:55:42;39.78;;;37.60;;
76405;SDS011;65234;50.044;19.258;2023-02-28T11:58:20;39.95;;;37.72;;
76405;SDS011;65234;50.044;19.258;2023-02-28T12:01:04;39.65;;;37.30;;
76405;SDS011;65234;50.044;19.258;2023-02-28T12:03:43;36.67;;;34.38;;
76405;SDS011;65234;50.044;19.258;2023-02-28T12:06:16;39.67;;;37.30;;
76405;SDS011;65234;50.044;19.258;2023-02-28T12:08:49;40.45;;;37.17;;
76405;SDS011;65234;50.044;19.258;2023-02-28T12:11:32;38.47;;;35.92;;
76405;SDS011;65234;50.044;19.258;2023-02-28T12:14:12;37.88;;;35.38;;
76405;SDS011;65234;50.044;19.258;2023-02-28T12:17:02;38.85;;;36.85;;
76405;SDS011;65234;50.044;19.258;2023-02-28T12:19:37;37.55;;;35.75;;
76405;SDS011;65234;50.044;19.258;2023-02-28T12:22:17;38.30;;;36.03;;
76405;SDS011;65234;50.044;19.258;2023-02-28T12:25:02;42.60;;;40.28;;
76405;SDS011;65234;50.044;19.258;2023-02-28T12:27:46;40.13;;;38.00;;
76405;SDS011;65234;50.044;19.258;2023-02-28T12:30:15;42.85;;;40.10;;
76405;SDS011;65234;50.044;19.258;2023-02-28T12:32:45;41.58;;;39.30;;
76405;SDS011;65234;50.044;19.258;2023-02-28T12:35:14;41.13;;;38.90;;
76405;SDS011;65234;50.044;19.258;2023-02-28T12:37:44;41.08;;;38.85;;
76405;SDS011;65234;50.044;19.258;2023-02-28T12:40:16;40.85;;;38.47;;
76405;SDS011;65234;50.044;19.258;2023-02-28T12:42:46;41.40;;;39.13;;
76405;SDS011;65234;50.044;19.258;2023-02-28T12:45:17;40.63;;;37.90;;
76405;SDS011;65234;50.044;19.258;2023-02-28T12:47:45;44.22;;;41.53;;
76405;SDS011;65234;50.044;19.258;2023-02-28T12:50:15;43.22;;;40.65;;
76405;SDS011;65234;50.044;19.258;2023-02-28T12:52:45;41.45;;;38.95;;
76405;SDS011;65234;50.044;19.258;2023-02-28T12:55:20;40.63;;;38.58;;
76405;SDS011;65234;50.044;19.258;2023-02-28T12:57:50;43.70;;;40.63;;
76405;SDS011;65234;50.044;19.258;2023-02-28T13:00:24;47.42;;;44.58;;
76405;SDS011;65234;50.044;19.258;2023-02-28T13:03:16;41.38;;;39.28;;
76405;SDS011;65234;50.044;19.258;2023-02-28T13:06:01;42.25;;;39.67;;
76405;SDS011;65234;50.044;19.258;2023-02-28T13:08:53;42.75;;;40.40;;
76405;SDS011;65234;50.044;19.258;2023-02-28T13:11:28;45.47;;;42.70;;
76405;SDS011;65234;50.044;19.258;2023-02-28T13:13:59;43.35;;;41.03;;
76405;SDS011;65234;50.044;19.258;2023-02-28T13:16:28;41.95;;;40.05;;
76405;SDS011;65234;50.044;19.258;2023-02-28T13:19:20;42.17;;;40.08;;
76405;SDS011;65234;50.044;19.258;2023-02-28T13:21:47;44.17;;;42.00;;
76405;SDS011;65234;50.044;19.258;2023-02-28T13:24:35;43.33;;;40.70;;
76405;SDS011;65234;50.044;19.258;2023-02-28T13:27:11;41.22;;;38.67;;
76405;SDS011;65234;50.044;19.258;2023-02-28T13:29:47;40.93;;;38.63;;
76405;SDS011;65234;50.044;19.258;2023-02-28T13:44:08;44.25;;;41.53;;
76405;SDS011;65234;50.044;19.258;2023-02-28T13:46:36;41.17;;;38.80;;
76405;SDS011;65234;50.044;19.258;2023-02-28T13:49:25;42.30;;;40.20;;
76405;SDS011;65234;50.044;19.258;2023-02-28T13:51:54;42.38;;;40.03;;
76405;SDS011;65234;50.044;19.258;2023-02-28T13:54:34;45.10;;;41.95;;
76405;SDS011;65234;50.044;19.258;2023-02-28T13:57:14;41.00;;;38.97;;
76405;SDS011;65234;50.044;19.258;2023-02-28T13:59:51;44.13;;;41.55;;
76405;SDS011;65234;50.044;19.258;2023-02-28T14:02:41;39.30;;;37.30;;
76405;SDS011;65234;50.044;19.258;2023-02-28T14:05:21;38.63;;;36.60;;
76405;SDS011;65234;50.044;19.258;2023-02-28T14:07:48;37.70;;;35.53;;
76405;SDS011;65234;50.044;19.258;2023-02-28T14:10:21;43.80;;;41.15;;
76405;SDS011;65234;50.044;19.258;2023-02-28T14:12:58;42.92;;;40.38;;
76405;SDS011;65234;50.044;19.258;2023-02-28T14:15:39;42.58;;;40.45;;
76405;SDS011;65234;50.044;19.258;2023-02-28T14:18:20;41.08;;;38.80;;
76405;SDS011;65234;50.044;19.258;2023-02-28T14:20:52;41.92;;;37.92;;
76405;SDS011;65234;50.044;19.258;2023-02-28T14:23:24;42.30;;;39.78;;
76405;SDS011;65234;50.044;19.258;2023-02-28T14:26:01;44.00;;;41.35;;
76405;SDS011;65234;50.044;19.258;2023-02-28T14:28:37;40.38;;;38.17;;
76405;SDS011;65234;50.044;19.258;2023-02-28T14:31:12;41.17;;;39.05;;
76405;SDS011;65234;50.044;19.258;2023-02-28T14:33:47;39.88;;;37.67;;
76405;SDS011;65234;50.044;19.258;2023-02-28T14:36:31;42.83;;;40.08;;
76405;SDS011;65234;50.044;19.258;2023-02-28T14:38:59;41.75;;;39.45;;
76405;SDS011;65234;50.044;19.258;2023-02-28T14:41:30;46.45;;;43.50;;
76405;SDS011;65234;50.044;19.258;2023-02-28T14:43:58;42.63;;;40.40;;
76405;SDS011;65234;50.044;19.258;2023-02-28T14:46:25;41.20;;;38.58;;